createdAt,value
2019-03-12T00:00:01.531Z,1
2019-03-12T00:05:02.587Z,1
2019-03-12T00:10:03.069Z,1
2019-03-12T00:15:02.451Z,1
2019-03-12T00:20:02.893Z,1
2019-03-12T00:25:03.358Z,1
2019-03-12T00:30:02.757Z,1
2019-03-12T00:35:03.243Z,1
2019-03-12T00:40:02.722Z,1
2019-03-12T00:45:03.139Z,1
2019-03-12T00:50:02.477Z,1
2019-03-12T00:55:02.868Z,1
2019-03-12T01:00:03.322Z,1
2019-03-12T01:05:02.788Z,1
2019-03-12T01:10:03.267Z,1
2019-03-12T01:15:02.653Z,1
2019-03-12T01:20:03.023Z,1
2019-03-12T01:25:02.353Z,1
2019-03-12T01:30:02.747Z,1
2019-03-12T01:35:03.238Z,1
2019-03-12T01:40:02.721Z,1
2019-03-12T01:45:03.095Z,1
2019-03-12T01:50:02.485Z,1
2019-03-12T01:55:02.863Z,1
2019-03-12T02:00:03.312Z,1
2019-03-12T02:05:02.700Z,1
2019-03-12T02:10:03.154Z,1
2019-03-12T02:15:02.554Z,1
2019-03-12T02:20:03.028Z,1
2019-03-12T02:25:02.414Z,1
2019-03-12T02:30:02.752Z,1
2019-03-12T02:35:03.206Z,1
2019-03-12T02:40:01.944Z,1
2019-03-12T02:45:03.381Z,1
2019-03-12T02:50:02.811Z,1
2019-03-12T02:55:03.227Z,1
2019-03-12T03:00:02.589Z,1
2019-03-12T03:05:02.991Z,1
2019-03-12T03:10:02.410Z,1
2019-03-12T03:15:02.739Z,1
2019-03-12T03:20:03.202Z,1
2019-03-12T03:25:02.607Z,1
2019-03-12T03:30:02.948Z,1
2019-03-12T03:35:03.478Z,1
2019-03-12T03:40:03.006Z,1
2019-03-12T03:45:02.478Z,1
2019-03-12T03:50:02.897Z,1
2019-03-12T03:55:03.371Z,1
2019-03-12T04:00:02.758Z,1
2019-03-12T04:05:03.185Z,1
2019-03-12T04:10:02.711Z,1
2019-03-12T04:15:03.148Z,1
2019-03-12T04:20:02.557Z,1
2019-03-12T04:25:02.919Z,1
2019-03-12T04:30:03.354Z,1
2019-03-12T04:35:02.762Z,1
2019-03-12T04:40:03.217Z,1
2019-03-12T04:45:02.648Z,1
2019-03-12T04:50:03.080Z,1
2019-03-12T04:55:02.492Z,1
2019-03-12T05:00:02.854Z,1
2019-03-12T05:05:03.283Z,1
2019-03-12T05:10:02.693Z,1
2019-03-12T05:15:03.051Z,1
2019-03-12T05:20:02.461Z,2
2019-03-12T05:25:02.841Z,2
2019-03-12T05:30:03.206Z,3
2019-03-12T05:35:02.560Z,7
2019-03-12T05:40:03.006Z,13
2019-03-12T05:45:02.426Z,26
2019-03-12T05:50:02.818Z,61
2019-03-12T05:55:03.221Z,72
2019-03-12T06:00:01.814Z,91
2019-03-12T06:05:03.178Z,134
2019-03-12T06:10:02.589Z,170
2019-03-12T06:15:02.935Z,282
2019-03-12T06:20:03.384Z,306
2019-03-12T06:25:02.892Z,322
2019-03-12T06:30:03.240Z,511
2019-03-12T06:35:02.714Z,525
2019-03-12T06:40:03.206Z,515
2019-03-12T06:45:02.530Z,529
2019-03-12T06:50:02.965Z,505
2019-03-12T06:55:01.500Z,502
2019-03-12T07:00:02.047Z,549
2019-03-12T07:05:02.455Z,615
2019-03-12T07:10:02.902Z,730
2019-03-12T07:15:03.442Z,789
2019-03-12T07:20:02.865Z,955
2019-03-12T07:25:03.306Z,1000
2019-03-12T07:30:02.714Z,1000
2019-03-12T07:35:03.074Z,1000
2019-03-12T07:40:02.578Z,1000
2019-03-12T07:45:03.031Z,1000
2019-03-12T07:50:02.445Z,2000
2019-03-12T07:55:02.892Z,2000
2019-03-12T08:00:03.338Z,2000
2019-03-12T08:05:02.845Z,1000
2019-03-12T08:10:03.293Z,2000
2019-03-12T08:15:02.721Z,2000
2019-03-12T08:20:03.167Z,3000
2019-03-12T08:25:02.610Z,4000
2019-03-12T08:30:02.939Z,4000
2019-03-12T08:35:03.362Z,4000
2019-03-12T08:40:02.772Z,4000
2019-03-12T08:45:03.131Z,4000
2019-03-12T08:50:02.535Z,4000
2019-03-12T08:55:04.226Z,4000
2019-03-12T09:00:02.052Z,5000
2019-03-12T09:05:01.650Z,5000
2019-03-12T09:10:02.285Z,4000
2019-03-12T09:15:02.727Z,5000
2019-03-12T09:20:03.153Z,4000
2019-03-12T09:25:02.574Z,4000
2019-03-12T09:30:03.028Z,4000
2019-03-12T09:35:02.469Z,4000
2019-03-12T09:40:02.873Z,4000
2019-03-12T09:45:03.320Z,5000
2019-03-12T09:50:02.740Z,5000
2019-03-12T09:55:04.915Z,5000
2019-03-12T10:00:14.996Z,6000
2019-03-12T10:05:02.748Z,7000
2019-03-12T10:10:03.186Z,8000
2019-03-12T10:15:02.549Z,10000
2019-03-12T10:20:02.139Z,14000
2019-03-12T10:25:02.588Z,13000
2019-03-12T10:30:02.931Z,15000
2019-03-12T10:35:03.353Z,10000
2019-03-12T10:40:02.770Z,9000
2019-03-12T10:45:03.118Z,7000
2019-03-12T10:50:02.527Z,7000
2019-03-12T10:55:12.363Z,11000
2019-03-12T11:00:03.159Z,10000
2019-03-12T11:05:02.526Z,9000
2019-03-12T11:10:02.968Z,8000
2019-03-12T11:15:02.706Z,7000
2019-03-12T11:20:03.152Z,6000
2019-03-12T11:25:02.503Z,6000
2019-03-12T11:30:02.907Z,7000
2019-03-12T11:35:03.382Z,7000
2019-03-12T11:40:03.043Z,5000
2019-03-12T11:45:02.681Z,5000
2019-03-12T11:50:03.158Z,5000
2019-03-12T11:55:02.546Z,5000
2019-03-12T12:00:02.956Z,6000
2019-03-12T12:05:02.327Z,7000
2019-03-12T12:10:02.790Z,7000
2019-03-12T12:15:03.215Z,6000
2019-03-12T12:20:02.626Z,6000
2019-03-12T12:25:02.144Z,6000
2019-03-12T12:30:02.580Z,6000
2019-03-12T12:35:02.927Z,7000
2019-03-12T12:40:02.386Z,6000
2019-03-12T12:45:02.782Z,5000
2019-03-12T12:50:03.135Z,5000
2019-03-12T12:55:02.549Z,5000
2019-03-12T13:00:02.895Z,6000
2019-03-12T13:05:03.221Z,8000
2019-03-12T13:10:02.650Z,7000
2019-03-12T13:15:02.995Z,6000
2019-03-12T13:20:02.410Z,6000
2019-03-12T13:25:02.756Z,4000
2019-03-12T13:30:03.089Z,5000
2019-03-12T13:35:02.507Z,5000
2019-03-12T13:40:02.962Z,5000
2019-03-12T13:45:02.534Z,4000
2019-03-12T13:50:03.142Z,3000
2019-03-12T13:55:02.894Z,2000
2019-03-12T14:00:02.383Z,2000
2019-03-12T14:05:02.722Z,2000
2019-03-12T14:10:03.160Z,1000
2019-03-12T14:15:02.577Z,1000
2019-03-12T14:20:03.015Z,1000
2019-03-12T14:25:02.445Z,1000
2019-03-12T14:30:02.921Z,2000
2019-03-12T14:35:03.366Z,2000
2019-03-12T14:40:02.879Z,2000
2019-03-12T14:45:03.330Z,2000
2019-03-12T14:50:02.717Z,2000
2019-03-12T14:55:03.147Z,1000
2019-03-12T15:00:02.602Z,1000
2019-03-12T15:05:03.025Z,1000
2019-03-12T15:10:02.437Z,1000
2019-03-12T15:15:02.775Z,1000
2019-03-12T15:20:03.221Z,1000
2019-03-12T15:25:02.567Z,1000
2019-03-12T15:30:02.976Z,1000
2019-03-12T15:35:02.319Z,1000
2019-03-12T15:40:02.760Z,1000
2019-03-12T15:45:03.184Z,1000
2019-03-12T15:50:02.911Z,1000
2019-03-12T15:55:03.356Z,906
2019-03-12T16:00:02.354Z,1000
2019-03-12T16:05:01.920Z,853
2019-03-12T16:10:02.316Z,722
2019-03-12T16:15:02.765Z,750
2019-03-12T16:20:03.232Z,534
2019-03-12T16:25:02.645Z,462
2019-03-12T16:30:03.175Z,460
2019-03-12T16:35:02.642Z,442
2019-03-12T16:40:03.050Z,449
2019-03-12T16:45:02.479Z,361
2019-03-12T16:50:02.915Z,321
2019-03-12T16:55:03.358Z,205
2019-03-12T17:00:08.237Z,306
2019-03-12T17:05:07.953Z,264
2019-03-12T17:10:02.320Z,172
2019-03-12T17:15:02.666Z,92
2019-03-12T17:20:08.122Z,61
2019-03-12T17:25:02.536Z,59
2019-03-12T17:30:02.987Z,33
2019-03-12T17:35:02.619Z,20
2019-03-12T17:40:03.033Z,14
2019-03-12T17:45:02.450Z,9
2019-03-12T17:50:02.795Z,6
2019-03-12T17:55:03.153Z,5
2019-03-12T18:00:02.560Z,2
2019-03-12T18:05:02.935Z,1
2019-03-12T18:10:02.446Z,1
2019-03-12T18:15:02.804Z,1
2019-03-12T18:20:03.208Z,1
2019-03-12T18:25:02.630Z,1
2019-03-12T18:30:03.079Z,1
2019-03-12T18:35:02.531Z,1
2019-03-12T18:40:02.914Z,1
2019-03-12T18:45:03.270Z,1
2019-03-12T18:50:02.683Z,1
2019-03-12T18:55:03.033Z,1
2019-03-12T19:00:02.456Z,1
2019-03-12T19:05:02.792Z,1
2019-03-12T19:10:03.236Z,1
2019-03-12T19:15:02.561Z,1
2019-03-12T19:20:02.906Z,1
2019-03-12T19:25:03.693Z,1
2019-03-12T19:30:03.108Z,1
2019-03-12T19:35:02.489Z,1
2019-03-12T19:40:02.917Z,1
2019-03-12T19:45:03.255Z,1
2019-03-12T19:50:02.705Z,1
2019-03-12T19:55:03.126Z,1
2019-03-12T20:00:02.461Z,1
2019-03-12T20:05:02.892Z,1
2019-03-12T20:10:02.540Z,1
2019-03-12T20:15:02.888Z,1
2019-03-12T20:20:03.315Z,1
2019-03-12T20:25:02.705Z,1
2019-03-12T20:30:03.066Z,1
2019-03-12T20:35:04.989Z,1
2019-03-12T20:40:02.707Z,1
2019-03-12T20:45:03.054Z,1
2019-03-12T20:50:03.149Z,1
2019-03-12T20:55:01.838Z,1
2019-03-12T21:00:03.255Z,1
2019-03-12T21:05:02.674Z,1
2019-03-12T21:10:03.110Z,1
2019-03-12T21:15:02.553Z,1
2019-03-12T21:20:02.185Z,1
2019-03-12T21:25:02.601Z,1
2019-03-12T21:30:03.047Z,1
2019-03-12T21:35:02.466Z,1
2019-03-12T21:40:02.914Z,1
2019-03-12T21:45:03.247Z,1
2019-03-12T21:50:02.685Z,1
2019-03-12T21:55:03.105Z,1
2019-03-12T22:00:02.525Z,1
2019-03-12T22:05:02.876Z,1
2019-03-12T22:10:03.338Z,1
2019-03-12T22:15:02.654Z,1
2019-03-12T22:20:03.126Z,1
2019-03-12T22:25:02.487Z,1
2019-03-12T22:30:02.827Z,1
2019-03-12T22:35:03.182Z,1
2019-03-12T22:40:02.583Z,1
2019-03-12T22:45:02.935Z,1
2019-03-12T22:50:03.275Z,1
2019-03-12T22:55:04.143Z,1
2019-03-12T23:00:01.820Z,1
2019-03-12T23:05:03.172Z,1
2019-03-12T23:10:01.751Z,1
2019-03-12T23:15:03.135Z,1
2019-03-12T23:20:02.479Z,1
2019-03-12T23:25:02.906Z,1
2019-03-12T23:30:03.230Z,1
2019-03-12T23:35:02.684Z,1
2019-03-12T23:40:03.127Z,1
2019-03-12T23:45:02.525Z,1
2019-03-12T23:50:02.857Z,1
2019-03-12T23:55:03.173Z,1
